Startpagina
METAR-TAF:

METAR-TAF

Vliegvelden :

Cairns Airport

Cairns, Australië

breedte: 16-53S, lengte: 145-45E, hoogte: 3 m

Actueel weer

Dit bericht is 27 minuten geleden gemaakt, om 21:30 UTC
Wind 10 kt uit het oostzuidoosten
Temperatuur 18°C
Vochtigheid 83%
Druk 1015 hPa
Zicht 10 km of meer
Weinig wolken op 2700 ft

METAR: YBCS 162130Z 12010KT 9999 FEW027 18/15 Q1015 NOSIG

Tijdstip: 07:57 (21:57 UTC)

Verwachting

Dit bericht is 4 uur en het 19 minuten geleden gemaakt, om 17:38 UTC
Verwachting geldig van 16 om 18 UTC tot 17 om 18 UTC
Wind 8 kt uit het zuiden
Zicht 10 km of meer
Weinig wolken op 2500 ft
Verspreide wolken op 3500 ft
Van 17 om 0100 UTC
Wind 12 kt uit het oostnoordoosten
Zicht 10 km of meer
Weinig wolken op 3000 ft
Verspreide wolken op 4000 ft
Van 17 om 0800 UTC
Wind 8 kt uit het zuiden
Zicht 10 km of meer
Weinig wolken op 2500 ft
Gebroken wolken op 3500 ft
lichte regenbuien

TAF: YBCS 161738Z 1618/1718 17008KT 9999 FEW025 SCT035 FM170100 07012KT 9999 FEW030 SCT040 FM170800 17008KT 9999 -SHRA FEW025 BKN035

Waarnemingen en weersverwachtingen van meer dan 4000 vliegvelden (METAR en TAF).

De beschikbare stations zijn de gele en rode punten op de kaart.

Ga met uw muis naar het station om de naam te zien.

Klik dan om waarnemingen en weersverwachtingen te zien.

kaart wijzigen: klik op de groene knoppen met een zwart kruis om in te zoomen, op de groene knop met een streepje om uit te zoomen of op de groene pijlen voor aangrenzende kaarten.


METAR-TAF: